sensor_id;sensor_type;location;lat;lon;timestamp;P1;durP1;ratioP1;P2;durP2;ratioP2
48516;SDS011;34310;51.904;4.256;2023-02-28T00:01:18;1.70;;;1.40;;
48516;SDS011;34310;51.904;4.256;2023-02-28T00:03:45;1.80;;;1.40;;
48516;SDS011;34310;51.904;4.256;2023-02-28T00:06:13;2.55;;;1.40;;
48516;SDS011;34310;51.904;4.256;2023-02-28T00:08:40;2.72;;;1.20;;
48516;SDS011;34310;51.904;4.256;2023-02-28T00:11:09;2.45;;;1.48;;
48516;SDS011;34310;51.904;4.256;2023-02-28T00:13:40;2.58;;;1.48;;
48516;SDS011;34310;51.904;4.256;2023-02-28T00:16:11;1.45;;;1.33;;
48516;SDS011;34310;51.904;4.256;2023-02-28T00:18:43;2.05;;;1.30;;
48516;SDS011;34310;51.904;4.256;2023-02-28T00:21:11;2.00;;;1.45;;
48516;SDS011;34310;51.904;4.256;2023-02-28T00:23:38;1.85;;;1.45;;
48516;SDS011;34310;51.904;4.256;2023-02-28T00:26:05;1.88;;;1.50;;
48516;SDS011;34310;51.904;4.256;2023-02-28T00:28:33;1.90;;;1.27;;
48516;SDS011;34310;51.904;4.256;2023-02-28T00:31:00;1.83;;;1.50;;
48516;SDS011;34310;51.904;4.256;2023-02-28T00:33:28;2.25;;;1.52;;
48516;SDS011;34310;51.904;4.256;2023-02-28T00:36:08;2.85;;;1.38;;
48516;SDS011;34310;51.904;4.256;2023-02-28T00:38:37;1.50;;;1.40;;
48516;SDS011;34310;51.904;4.256;2023-02-28T00:41:06;2.08;;;1.38;;
48516;SDS011;34310;51.904;4.256;2023-02-28T00:43:35;1.80;;;1.20;;
48516;SDS011;34310;51.904;4.256;2023-02-28T00:46:04;1.85;;;1.27;;
48516;SDS011;34310;51.904;4.256;2023-02-28T00:48:32;1.45;;;1.20;;
48516;SDS011;34310;51.904;4.256;2023-02-28T00:50:59;1.90;;;1.30;;
48516;SDS011;34310;51.904;4.256;2023-02-28T00:53:28;1.50;;;1.10;;
48516;SDS011;34310;51.904;4.256;2023-02-28T00:55:55;1.80;;;1.20;;
48516;SDS011;34310;51.904;4.256;2023-02-28T00:58:22;1.83;;;1.10;;
48516;SDS011;34310;51.904;4.256;2023-02-28T01:00:50;1.73;;;1.38;;
48516;SDS011;34310;51.904;4.256;2023-02-28T01:03:19;1.88;;;1.30;;
48516;SDS011;34310;51.904;4.256;2023-02-28T01:05:47;1.50;;;1.10;;
48516;SDS011;34310;51.904;4.256;2023-02-28T01:08:14;1.83;;;1.20;;
48516;SDS011;34310;51.904;4.256;2023-02-28T01:10:41;1.60;;;1.20;;
48516;SDS011;34310;51.904;4.256;2023-02-28T01:13:09;1.45;;;1.23;;
48516;SDS011;34310;51.904;4.256;2023-02-28T01:15:37;1.77;;;1.00;;
48516;SDS011;34310;51.904;4.256;2023-02-28T01:18:17;1.70;;;1.10;;
48516;SDS011;34310;51.904;4.256;2023-02-28T01:20:46;1.42;;;1.25;;
48516;SDS011;34310;51.904;4.256;2023-02-28T01:23:14;1.92;;;1.10;;
48516;SDS011;34310;51.904;4.256;2023-02-28T01:25:41;1.45;;;1.33;;
48516;SDS011;34310;51.904;4.256;2023-02-28T01:28:09;1.20;;;1.10;;
48516;SDS011;34310;51.904;4.256;2023-02-28T01:30:36;1.27;;;1.17;;
48516;SDS011;34310;51.904;4.256;2023-02-28T01:33:03;1.58;;;1.35;;
48516;SDS011;34310;51.904;4.256;2023-02-28T01:35:34;1.45;;;1.20;;
48516;SDS011;34310;51.904;4.256;2023-02-28T01:38:02;1.05;;;0.93;;
48516;SDS011;34310;51.904;4.256;2023-02-28T01:40:46;1.50;;;1.20;;
48516;SDS011;34310;51.904;4.256;2023-02-28T01:45:57;2.15;;;1.40;;
48516;SDS011;34310;51.904;4.256;2023-02-28T01:48:29;1.27;;;1.17;;
48516;SDS011;34310;51.904;4.256;2023-02-28T01:51:02;1.55;;;1.13;;
48516;SDS011;34310;51.904;4.256;2023-02-28T01:53:34;1.20;;;1.08;;
48516;SDS011;34310;51.904;4.256;2023-02-28T01:56:17;1.27;;;1.13;;
48516;SDS011;34310;51.904;4.256;2023-02-28T01:58:49;1.67;;;1.20;;
48516;SDS011;34310;51.904;4.256;2023-02-28T02:01:20;1.30;;;1.20;;
48516;SDS011;34310;51.904;4.256;2023-02-28T02:03:57;1.20;;;1.00;;
48516;SDS011;34310;51.904;4.256;2023-02-28T02:06:39;1.38;;;1.20;;
48516;SDS011;34310;51.904;4.256;2023-02-28T02:09:09;1.17;;;1.02;;
48516;SDS011;34310;51.904;4.256;2023-02-28T02:11:37;1.48;;;1.10;;
48516;SDS011;34310;51.904;4.256;2023-02-28T02:38:55;1.30;;;1.02;;
48516;SDS011;34310;51.904;4.256;2023-02-28T02:44:07;1.20;;;1.10;;
48516;SDS011;34310;51.904;4.256;2023-02-28T02:46:47;1.25;;;1.13;;
48516;SDS011;34310;51.904;4.256;2023-02-28T02:49:20;2.00;;;1.20;;
48516;SDS011;34310;51.904;4.256;2023-02-28T02:51:51;1.98;;;1.30;;
48516;SDS011;34310;51.904;4.256;2023-02-28T02:54:22;1.23;;;1.13;;
48516;SDS011;34310;51.904;4.256;2023-02-28T02:56:55;1.67;;;1.10;;
48516;SDS011;34310;51.904;4.256;2023-02-28T02:59:26;1.30;;;1.10;;
48516;SDS011;34310;51.904;4.256;2023-02-28T03:01:56;1.67;;;1.20;;
48516;SDS011;34310;51.904;4.256;2023-02-28T03:04:28;1.83;;;1.27;;
48516;SDS011;34310;51.904;4.256;2023-02-28T03:07:00;0.88;;;0.88;;
48516;SDS011;34310;51.904;4.256;2023-02-28T03:09:28;1.73;;;1.13;;
48516;SDS011;34310;51.904;4.256;2023-02-28T03:11:58;2.50;;;1.10;;
48516;SDS011;34310;51.904;4.256;2023-02-28T03:17:21;1.38;;;1.27;;
48516;SDS011;34310;51.904;4.256;2023-02-28T03:20:14;2.30;;;1.20;;
48516;SDS011;34310;51.904;4.256;2023-02-28T03:26:02;1.85;;;1.08;;
48516;SDS011;34310;51.904;4.256;2023-02-28T03:28:43;1.30;;;1.10;;
48516;SDS011;34310;51.904;4.256;2023-02-28T03:32:03;1.30;;;1.20;;
48516;SDS011;34310;51.904;4.256;2023-02-28T03:34:53;1.20;;;1.10;;
48516;SDS011;34310;51.904;4.256;2023-02-28T03:37:49;1.95;;;1.20;;
48516;SDS011;34310;51.904;4.256;2023-02-28T03:40:27;1.40;;;1.10;;
48516;SDS011;34310;51.904;4.256;2023-02-28T03:42:59;1.13;;;1.00;;
48516;SDS011;34310;51.904;4.256;2023-02-28T03:45:36;1.45;;;1.17;;
48516;SDS011;34310;51.904;4.256;2023-02-28T03:48:18;2.05;;;1.30;;
48516;SDS011;34310;51.904;4.256;2023-02-28T03:50:51;1.75;;;1.40;;
48516;SDS011;34310;51.904;4.256;2023-02-28T03:53:29;1.33;;;1.17;;
48516;SDS011;34310;51.904;4.256;2023-02-28T03:56:17;1.35;;;1.10;;
48516;SDS011;34310;51.904;4.256;2023-02-28T03:59:05;1.63;;;1.20;;
48516;SDS011;34310;51.904;4.256;2023-02-28T04:01:43;2.40;;;1.20;;
48516;SDS011;34310;51.904;4.256;2023-02-28T04:04:12;1.83;;;1.30;;
48516;SDS011;34310;51.904;4.256;2023-02-28T04:06:40;1.65;;;1.35;;
48516;SDS011;34310;51.904;4.256;2023-02-28T04:09:09;1.67;;;1.30;;
48516;SDS011;34310;51.904;4.256;2023-02-28T04:11:40;1.23;;;1.00;;
48516;SDS011;34310;51.904;4.256;2023-02-28T04:14:10;1.73;;;1.15;;
48516;SDS011;34310;51.904;4.256;2023-02-28T04:16:39;1.60;;;1.35;;
48516;SDS011;34310;51.904;4.256;2023-02-28T04:19:08;1.25;;;1.10;;
48516;SDS011;34310;51.904;4.256;2023-02-28T04:21:47;1.83;;;1.20;;
48516;SDS011;34310;51.904;4.256;2023-02-28T04:24:17;1.35;;;1.20;;
48516;SDS011;34310;51.904;4.256;2023-02-28T04:26:47;1.15;;;1.05;;
48516;SDS011;34310;51.904;4.256;2023-02-28T04:29:34;1.40;;;1.30;;
48516;SDS011;34310;51.904;4.256;2023-02-28T04:32:02;2.13;;;1.73;;
48516;SDS011;34310;51.904;4.256;2023-02-28T04:34:31;1.42;;;1.20;;
48516;SDS011;34310;51.904;4.256;2023-02-28T04:36:59;1.40;;;1.30;;
48516;SDS011;34310;51.904;4.256;2023-02-28T04:39:42;1.50;;;1.38;;
48516;SDS011;34310;51.904;4.256;2023-02-28T04:42:10;1.33;;;1.20;;
48516;SDS011;34310;51.904;4.256;2023-02-28T04:44:37;2.95;;;1.40;;
48516;SDS011;34310;51.904;4.256;2023-02-28T04:47:05;1.35;;;1.20;;
48516;SDS011;34310;51.904;4.256;2023-02-28T04:49:32;2.15;;;1.30;;
48516;SDS011;34310;51.904;4.256;2023-02-28T04:52:00;3.28;;;1.20;;
48516;SDS011;34310;51.904;4.256;2023-02-28T04:54:27;2.05;;;1.40;;
48516;SDS011;34310;51.904;4.256;2023-02-28T04:56:55;1.52;;;1.40;;
48516;SDS011;34310;51.904;4.256;2023-02-28T04:59:23;2.28;;;1.30;;
48516;SDS011;34310;51.904;4.256;2023-02-28T05:01:50;1.20;;;1.10;;
48516;SDS011;34310;51.904;4.256;2023-02-28T05:04:18;1.55;;;1.40;;
48516;SDS011;34310;51.904;4.256;2023-02-28T05:06:45;1.77;;;1.40;;
48516;SDS011;34310;51.904;4.256;2023-02-28T05:09:12;1.92;;;1.20;;
48516;SDS011;34310;51.904;4.256;2023-02-28T05:11:40;1.70;;;1.40;;
48516;SDS011;34310;51.904;4.256;2023-02-28T05:14:11;2.20;;;1.40;;
48516;SDS011;34310;51.904;4.256;2023-02-28T05:16:40;1.73;;;1.13;;
48516;SDS011;34310;51.904;4.256;2023-02-28T05:19:07;1.48;;;1.38;;
48516;SDS011;34310;51.904;4.256;2023-02-28T05:21:36;1.85;;;1.50;;
48516;SDS011;34310;51.904;4.256;2023-02-28T05:24:06;2.08;;;1.52;;
48516;SDS011;34310;51.904;4.256;2023-02-28T05:26:39;2.22;;;1.50;;
48516;SDS011;34310;51.904;4.256;2023-02-28T05:29:08;2.67;;;1.60;;
48516;SDS011;34310;51.904;4.256;2023-02-28T05:31:36;1.70;;;1.40;;
48516;SDS011;34310;51.904;4.256;2023-02-28T05:34:04;1.85;;;1.50;;
48516;SDS011;34310;51.904;4.256;2023-02-28T05:36:31;1.95;;;1.50;;
48516;SDS011;34310;51.904;4.256;2023-02-28T05:38:59;2.75;;;1.63;;
48516;SDS011;34310;51.904;4.256;2023-02-28T05:41:26;2.10;;;1.65;;
48516;SDS011;34310;51.904;4.256;2023-02-28T05:43:54;3.05;;;1.60;;
48516;SDS011;34310;51.904;4.256;2023-02-28T05:46:23;1.88;;;1.70;;
48516;SDS011;34310;51.904;4.256;2023-02-28T05:48:50;1.67;;;1.52;;
48516;SDS011;34310;51.904;4.256;2023-02-28T05:51:18;2.50;;;1.73;;
48516;SDS011;34310;51.904;4.256;2023-02-28T05:53:45;2.33;;;1.65;;
48516;SDS011;34310;51.904;4.256;2023-02-28T05:56:14;2.30;;;1.83;;
48516;SDS011;34310;51.904;4.256;2023-02-28T05:58:41;1.77;;;1.50;;
48516;SDS011;34310;51.904;4.256;2023-02-28T06:01:22;2.75;;;2.00;;
48516;SDS011;34310;51.904;4.256;2023-02-28T06:03:53;2.03;;;1.83;;
48516;SDS011;34310;51.904;4.256;2023-02-28T06:06:20;2.83;;;1.80;;
48516;SDS011;34310;51.904;4.256;2023-02-28T06:08:47;1.95;;;1.75;;
48516;SDS011;34310;51.904;4.256;2023-02-28T06:11:15;1.90;;;1.70;;
48516;SDS011;34310;51.904;4.256;2023-02-28T06:13:42;2.25;;;2.05;;
48516;SDS011;34310;51.904;4.256;2023-02-28T06:16:10;2.22;;;2.03;;
48516;SDS011;34310;51.904;4.256;2023-02-28T06:18:38;1.90;;;1.60;;
48516;SDS011;34310;51.904;4.256;2023-02-28T06:21:05;1.95;;;1.77;;
48516;SDS011;34310;51.904;4.256;2023-02-28T06:23:32;2.22;;;1.90;;
48516;SDS011;34310;51.904;4.256;2023-02-28T06:26:00;2.08;;;1.85;;
48516;SDS011;34310;51.904;4.256;2023-02-28T06:28:28;2.72;;;1.90;;
48516;SDS011;34310;51.904;4.256;2023-02-28T06:30:55;2.20;;;2.00;;
48516;SDS011;34310;51.904;4.256;2023-02-28T06:33:22;2.33;;;2.08;;
48516;SDS011;34310;51.904;4.256;2023-02-28T06:35:50;2.88;;;2.33;;
48516;SDS011;34310;51.904;4.256;2023-02-28T06:38:18;2.75;;;2.28;;
48516;SDS011;34310;51.904;4.256;2023-02-28T06:40:52;3.15;;;2.40;;
48516;SDS011;34310;51.904;4.256;2023-02-28T06:43:20;2.60;;;2.40;;
48516;SDS011;34310;51.904;4.256;2023-02-28T06:45:48;3.65;;;2.58;;
48516;SDS011;34310;51.904;4.256;2023-02-28T06:48:16;2.40;;;2.10;;
48516;SDS011;34310;51.904;4.256;2023-02-28T06:50:43;3.35;;;2.78;;
48516;SDS011;34310;51.904;4.256;2023-02-28T06:53:11;3.05;;;2.53;;
48516;SDS011;34310;51.904;4.256;2023-02-28T06:55:39;3.45;;;2.75;;
48516;SDS011;34310;51.904;4.256;2023-02-28T06:58:06;3.85;;;2.78;;
48516;SDS011;34310;51.904;4.256;2023-02-28T07:00:44;3.70;;;2.72;;
48516;SDS011;34310;51.904;4.256;2023-02-28T07:03:12;3.10;;;2.80;;
48516;SDS011;34310;51.904;4.256;2023-02-28T07:05:41;3.50;;;2.60;;
48516;SDS011;34310;51.904;4.256;2023-02-28T07:08:09;2.90;;;2.40;;
48516;SDS011;34310;51.904;4.256;2023-02-28T07:10:39;2.47;;;2.25;;
48516;SDS011;34310;51.904;4.256;2023-02-28T07:13:08;3.90;;;2.50;;
48516;SDS011;34310;51.904;4.256;2023-02-28T07:15:36;3.78;;;2.65;;
48516;SDS011;34310;51.904;4.256;2023-02-28T07:18:08;2.65;;;2.40;;
48516;SDS011;34310;51.904;4.256;2023-02-28T07:20:35;3.58;;;2.70;;
48516;SDS011;34310;51.904;4.256;2023-02-28T07:23:02;4.30;;;2.90;;
48516;SDS011;34310;51.904;4.256;2023-02-28T07:25:30;5.95;;;3.20;;
48516;SDS011;34310;51.904;4.256;2023-02-28T07:27:57;5.78;;;3.03;;
48516;SDS011;34310;51.904;4.256;2023-02-28T07:30:25;5.68;;;2.70;;
48516;SDS011;34310;51.904;4.256;2023-02-28T07:32:52;4.07;;;2.80;;
48516;SDS011;34310;51.904;4.256;2023-02-28T07:35:22;5.93;;;3.08;;
48516;SDS011;34310;51.904;4.256;2023-02-28T07:37:50;6.22;;;3.03;;
48516;SDS011;34310;51.904;4.256;2023-02-28T07:40:17;3.80;;;2.63;;
48516;SDS011;34310;51.904;4.256;2023-02-28T07:42:45;3.40;;;2.70;;
48516;SDS011;34310;51.904;4.256;2023-02-28T07:45:12;8.40;;;3.03;;
48516;SDS011;34310;51.904;4.256;2023-02-28T07:47:40;6.53;;;2.85;;
48516;SDS011;34310;51.904;4.256;2023-02-28T07:50:09;4.80;;;2.92;;
48516;SDS011;34310;51.904;4.256;2023-02-28T07:52:39;4.88;;;3.17;;
48516;SDS011;34310;51.904;4.256;2023-02-28T07:55:07;4.35;;;2.97;;
48516;SDS011;34310;51.904;4.256;2023-02-28T07:57:36;5.35;;;2.67;;
48516;SDS011;34310;51.904;4.256;2023-02-28T08:00:04;7.55;;;3.03;;
48516;SDS011;34310;51.904;4.256;2023-02-28T08:02:35;2.67;;;2.20;;
48516;SDS011;34310;51.904;4.256;2023-02-28T08:05:02;3.65;;;2.40;;
48516;SDS011;34310;51.904;4.256;2023-02-28T08:07:30;4.13;;;2.65;;
48516;SDS011;34310;51.904;4.256;2023-02-28T08:09:59;3.08;;;2.47;;
48516;SDS011;34310;51.904;4.256;2023-02-28T08:12:27;3.15;;;2.45;;
48516;SDS011;34310;51.904;4.256;2023-02-28T08:14:54;2.95;;;2.63;;
48516;SDS011;34310;51.904;4.256;2023-02-28T08:17:21;5.60;;;2.50;;
48516;SDS011;34310;51.904;4.256;2023-02-28T08:19:49;2.90;;;2.60;;
48516;SDS011;34310;51.904;4.256;2023-02-28T08:22:16;3.40;;;2.30;;
48516;SDS011;34310;51.904;4.256;2023-02-28T08:24:43;3.53;;;2.20;;
48516;SDS011;34310;51.904;4.256;2023-02-28T08:27:11;3.15;;;2.33;;
48516;SDS011;34310;51.904;4.256;2023-02-28T08:29:39;4.53;;;2.20;;
48516;SDS011;34310;51.904;4.256;2023-02-28T08:32:07;3.05;;;1.90;;
48516;SDS011;34310;51.904;4.256;2023-02-28T08:34:45;3.10;;;2.30;;
48516;SDS011;34310;51.904;4.256;2023-02-28T08:37:13;3.53;;;2.40;;
48516;SDS011;34310;51.904;4.256;2023-02-28T08:39:40;3.25;;;2.17;;
48516;SDS011;34310;51.904;4.256;2023-02-28T08:42:08;2.72;;;2.08;;
48516;SDS011;34310;51.904;4.256;2023-02-28T08:44:35;2.58;;;1.95;;
48516;SDS011;34310;51.904;4.256;2023-02-28T08:47:02;3.42;;;2.20;;
48516;SDS011;34310;51.904;4.256;2023-02-28T08:49:30;2.95;;;2.08;;
48516;SDS011;34310;51.904;4.256;2023-02-28T08:51:58;2.28;;;2.00;;
48516;SDS011;34310;51.904;4.256;2023-02-28T08:54:25;3.08;;;2.03;;
48516;SDS011;34310;51.904;4.256;2023-02-28T08:56:56;2.95;;;2.05;;
48516;SDS011;34310;51.904;4.256;2023-02-28T08:59:24;2.58;;;1.77;;
48516;SDS011;34310;51.904;4.256;2023-02-28T09:01:51;2.50;;;2.17;;
48516;SDS011;34310;51.904;4.256;2023-02-28T09:04:18;3.08;;;1.95;;
48516;SDS011;34310;51.904;4.256;2023-02-28T09:06:46;2.67;;;2.00;;
48516;SDS011;34310;51.904;4.256;2023-02-28T09:09:15;3.90;;;2.05;;
48516;SDS011;34310;51.904;4.256;2023-02-28T09:11:42;2.15;;;1.95;;
48516;SDS011;34310;51.904;4.256;2023-02-28T09:14:09;3.38;;;1.98;;
48516;SDS011;34310;51.904;4.256;2023-02-28T09:16:37;3.00;;;2.28;;
48516;SDS011;34310;51.904;4.256;2023-02-28T09:19:04;3.20;;;2.20;;
48516;SDS011;34310;51.904;4.256;2023-02-28T09:21:31;2.10;;;1.90;;
48516;SDS011;34310;51.904;4.256;2023-02-28T09:23:59;2.95;;;2.00;;
48516;SDS011;34310;51.904;4.256;2023-02-28T09:26:26;1.90;;;1.70;;
48516;SDS011;34310;51.904;4.256;2023-02-28T09:29:07;3.72;;;2.00;;
48516;SDS011;34310;51.904;4.256;2023-02-28T09:31:35;2.97;;;1.95;;
48516;SDS011;34310;51.904;4.256;2023-02-28T09:34:03;2.20;;;2.00;;
48516;SDS011;34310;51.904;4.256;2023-02-28T09:36:31;2.42;;;1.80;;
48516;SDS011;34310;51.904;4.256;2023-02-28T09:39:10;2.55;;;2.05;;
48516;SDS011;34310;51.904;4.256;2023-02-28T09:41:43;2.30;;;1.73;;
48516;SDS011;34310;51.904;4.256;2023-02-28T09:44:27;4.22;;;2.28;;
48516;SDS011;34310;51.904;4.256;2023-02-28T09:47:07;2.20;;;2.00;;
48516;SDS011;34310;51.904;4.256;2023-02-28T09:49:42;2.58;;;1.95;;
48516;SDS011;34310;51.904;4.256;2023-02-28T09:52:20;3.85;;;1.80;;
48516;SDS011;34310;51.904;4.256;2023-02-28T09:54:53;2.60;;;1.90;;
48516;SDS011;34310;51.904;4.256;2023-02-28T10:00:18;2.00;;;1.70;;
48516;SDS011;34310;51.904;4.256;2023-02-28T10:08:14;2.13;;;1.77;;
48516;SDS011;34310;51.904;4.256;2023-02-28T10:11:07;1.88;;;1.50;;
48516;SDS011;34310;51.904;4.256;2023-02-28T10:24:48;2.00;;;1.67;;
48516;SDS011;34310;51.904;4.256;2023-02-28T10:27:23;2.88;;;1.80;;
48516;SDS011;34310;51.904;4.256;2023-02-28T10:29:53;1.85;;;1.52;;
48516;SDS011;34310;51.904;4.256;2023-02-28T10:32:32;1.70;;;1.60;;
48516;SDS011;34310;51.904;4.256;2023-02-28T10:37:41;3.20;;;1.50;;
48516;SDS011;34310;51.904;4.256;2023-02-28T10:40:33;3.33;;;1.70;;
48516;SDS011;34310;51.904;4.256;2023-02-28T10:45:52;2.58;;;1.77;;
48516;SDS011;34310;51.904;4.256;2023-02-28T10:48:43;2.67;;;1.50;;
48516;SDS011;34310;51.904;4.256;2023-02-28T10:51:26;2.05;;;1.58;;
48516;SDS011;34310;51.904;4.256;2023-02-28T10:54:05;3.00;;;1.60;;
48516;SDS011;34310;51.904;4.256;2023-02-28T10:56:41;2.00;;;1.70;;
48516;SDS011;34310;51.904;4.256;2023-02-28T11:01:48;3.10;;;1.63;;
48516;SDS011;34310;51.904;4.256;2023-02-28T11:06:48;2.00;;;1.42;;
48516;SDS011;34310;51.904;4.256;2023-02-28T11:09:29;2.22;;;1.60;;
48516;SDS011;34310;51.904;4.256;2023-02-28T11:11:57;3.33;;;1.80;;
48516;SDS011;34310;51.904;4.256;2023-02-28T11:14:26;2.28;;;1.50;;
48516;SDS011;34310;51.904;4.256;2023-02-28T11:16:57;2.25;;;1.63;;
48516;SDS011;34310;51.904;4.256;2023-02-28T11:19:38;3.78;;;1.50;;
48516;SDS011;34310;51.904;4.256;2023-02-28T11:22:15;3.90;;;1.50;;
48516;SDS011;34310;51.904;4.256;2023-02-28T11:24:47;1.83;;;1.63;;
48516;SDS011;34310;51.904;4.256;2023-02-28T11:29:58;2.40;;;1.55;;
48516;SDS011;34310;51.904;4.256;2023-02-28T11:32:27;2.20;;;1.30;;
48516;SDS011;34310;51.904;4.256;2023-02-28T11:35:30;2.33;;;1.75;;
48516;SDS011;34310;51.904;4.256;2023-02-28T11:37:52;3.10;;;1.60;;
48516;SDS011;34310;51.904;4.256;2023-02-28T11:40:26;1.83;;;1.48;;
48516;SDS011;34310;51.904;4.256;2023-02-28T11:49:05;2.05;;;1.60;;
48516;SDS011;34310;51.904;4.256;2023-02-28T11:58:10;1.80;;;1.58;;
48516;SDS011;34310;51.904;4.256;2023-02-28T12:03:31;2.85;;;1.35;;
48516;SDS011;34310;51.904;4.256;2023-02-28T12:09:35;3.17;;;1.95;;
48516;SDS011;34310;51.904;4.256;2023-02-28T12:20:37;1.40;;;1.30;;
48516;SDS011;34310;51.904;4.256;2023-02-28T12:28:25;1.88;;;1.77;;
48516;SDS011;34310;51.904;4.256;2023-02-28T12:31:01;1.63;;;1.38;;
48516;SDS011;34310;51.904;4.256;2023-02-28T12:33:59;1.40;;;1.25;;
48516;SDS011;34310;51.904;4.256;2023-02-28T12:36:40;2.28;;;1.60;;
48516;SDS011;34310;51.904;4.256;2023-02-28T12:39:12;1.92;;;1.40;;
48516;SDS011;34310;51.904;4.256;2023-02-28T12:41:53;1.70;;;1.55;;
48516;SDS011;34310;51.904;4.256;2023-02-28T12:44:32;1.92;;;1.58;;
48516;SDS011;34310;51.904;4.256;2023-02-28T12:47:08;1.50;;;1.40;;
48516;SDS011;34310;51.904;4.256;2023-02-28T12:52:37;1.77;;;1.48;;
48516;SDS011;34310;51.904;4.256;2023-02-28T12:55:45;1.77;;;1.45;;
48516;SDS011;34310;51.904;4.256;2023-02-28T13:07:22;1.98;;;1.30;;
48516;SDS011;34310;51.904;4.256;2023-02-28T13:09:59;2.55;;;1.65;;
48516;SDS011;34310;51.904;4.256;2023-02-28T13:12:30;2.95;;;1.85;;
48516;SDS011;34310;51.904;4.256;2023-02-28T13:15:02;3.28;;;1.60;;
48516;SDS011;34310;51.904;4.256;2023-02-28T13:17:38;2.83;;;1.50;;
48516;SDS011;34310;51.904;4.256;2023-02-28T13:20:18;2.60;;;1.45;;
48516;SDS011;34310;51.904;4.256;2023-02-28T13:22:48;1.80;;;1.40;;
48516;SDS011;34310;51.904;4.256;2023-02-28T13:27:50;1.50;;;1.40;;
48516;SDS011;34310;51.904;4.256;2023-02-28T13:38:57;1.50;;;1.40;;
48516;SDS011;34310;51.904;4.256;2023-02-28T13:44:06;1.50;;;1.30;;
48516;SDS011;34310;51.904;4.256;2023-02-28T13:51:53;1.88;;;1.30;;
48516;SDS011;34310;51.904;4.256;2023-02-28T14:06:33;1.25;;;1.15;;
48516;SDS011;34310;51.904;4.256;2023-02-28T14:08:58;1.33;;;1.23;;
48516;SDS011;34310;51.904;4.256;2023-02-28T14:11:36;1.20;;;1.10;;
48516;SDS011;34310;51.904;4.256;2023-02-28T14:14:06;1.10;;;1.00;;
48516;SDS011;34310;51.904;4.256;2023-02-28T14:16:45;1.60;;;1.20;;
48516;SDS011;34310;51.904;4.256;2023-02-28T14:19:15;1.63;;;1.20;;
48516;SDS011;34310;51.904;4.256;2023-02-28T14:28:02;1.30;;;1.10;;
48516;SDS011;34310;51.904;4.256;2023-02-28T14:30:43;1.65;;;1.30;;
48516;SDS011;34310;51.904;4.256;2023-02-28T14:36:21;1.75;;;1.40;;
48516;SDS011;34310;51.904;4.256;2023-02-28T14:39:07;2.45;;;1.60;;
48516;SDS011;34310;51.904;4.256;2023-02-28T14:41:51;2.38;;;1.65;;
48516;SDS011;34310;51.904;4.256;2023-02-28T14:44:19;1.75;;;1.33;;
48516;SDS011;34310;51.904;4.256;2023-02-28T14:46:55;1.27;;;1.17;;
48516;SDS011;34310;51.904;4.256;2023-02-28T14:49:36;2.28;;;1.30;;
48516;SDS011;34310;51.904;4.256;2023-02-28T14:52:17;2.00;;;1.08;;
48516;SDS011;34310;51.904;4.256;2023-02-28T14:54:57;1.90;;;1.25;;
48516;SDS011;34310;51.904;4.256;2023-02-28T14:57:30;1.40;;;1.25;;
48516;SDS011;34310;51.904;4.256;2023-02-28T15:00:16;1.33;;;1.20;;
48516;SDS011;34310;51.904;4.256;2023-02-28T15:02:50;1.50;;;1.35;;
48516;SDS011;34310;51.904;4.256;2023-02-28T15:05:21;1.38;;;1.25;;
48516;SDS011;34310;51.904;4.256;2023-02-28T15:08:11;1.05;;;1.05;;
48516;SDS011;34310;51.904;4.256;2023-02-28T15:10:44;1.40;;;1.30;;
48516;SDS011;34310;51.904;4.256;2023-02-28T15:13:21;1.08;;;1.05;;
48516;SDS011;34310;51.904;4.256;2023-02-28T15:15:59;1.17;;;1.10;;
48516;SDS011;34310;51.904;4.256;2023-02-28T15:18:31;1.25;;;1.15;;
48516;SDS011;34310;51.904;4.256;2023-02-28T15:21:07;2.65;;;1.60;;
48516;SDS011;34310;51.904;4.256;2023-02-28T15:26:46;1.60;;;1.40;;
48516;SDS011;34310;51.904;4.256;2023-02-28T15:29:20;2.38;;;1.70;;
48516;SDS011;34310;51.904;4.256;2023-02-28T15:31:50;1.88;;;1.70;;
48516;SDS011;34310;51.904;4.256;2023-02-28T15:34:36;2.15;;;1.70;;
48516;SDS011;34310;51.904;4.256;2023-02-28T15:37:29;1.60;;;1.50;;
48516;SDS011;34310;51.904;4.256;2023-02-28T15:39:58;1.60;;;1.50;;
48516;SDS011;34310;51.904;4.256;2023-02-28T15:44:59;1.92;;;1.67;;
48516;SDS011;34310;51.904;4.256;2023-02-28T15:47:27;1.60;;;1.50;;
48516;SDS011;34310;51.904;4.256;2023-02-28T15:50:00;1.70;;;1.40;;
48516;SDS011;34310;51.904;4.256;2023-02-28T15:55:11;1.60;;;1.50;;
48516;SDS011;34310;51.904;4.256;2023-02-28T15:57:46;1.45;;;1.33;;
48516;SDS011;34310;51.904;4.256;2023-02-28T16:00:21;2.42;;;1.60;;
48516;SDS011;34310;51.904;4.256;2023-02-28T16:02:51;2.63;;;1.80;;
48516;SDS011;34310;51.904;4.256;2023-02-28T16:05:20;1.80;;;1.52;;
48516;SDS011;34310;51.904;4.256;2023-02-28T16:07:54;2.35;;;1.63;;
48516;SDS011;34310;51.904;4.256;2023-02-28T16:10:24;2.15;;;1.63;;
48516;SDS011;34310;51.904;4.256;2023-02-28T16:12:54;3.20;;;1.60;;
48516;SDS011;34310;51.904;4.256;2023-02-28T16:15:27;1.50;;;1.30;;
48516;SDS011;34310;51.904;4.256;2023-02-28T16:17:57;1.63;;;1.52;;
48516;SDS011;34310;51.904;4.256;2023-02-28T16:20:25;2.30;;;1.30;;
48516;SDS011;34310;51.904;4.256;2023-02-28T16:22:55;1.90;;;1.35;;
48516;SDS011;34310;51.904;4.256;2023-02-28T16:25:23;2.65;;;1.42;;
48516;SDS011;34310;51.904;4.256;2023-02-28T16:27:59;1.38;;;1.23;;
48516;SDS011;34310;51.904;4.256;2023-02-28T16:30:28;1.50;;;1.40;;
48516;SDS011;34310;51.904;4.256;2023-02-28T16:32:59;2.25;;;1.35;;
48516;SDS011;34310;51.904;4.256;2023-02-28T16:35:26;1.63;;;1.40;;
48516;SDS011;34310;51.904;4.256;2023-02-28T16:37:53;1.83;;;1.63;;
48516;SDS011;34310;51.904;4.256;2023-02-28T16:40:22;2.30;;;1.58;;
48516;SDS011;34310;51.904;4.256;2023-02-28T16:42:55;1.98;;;1.70;;
48516;SDS011;34310;51.904;4.256;2023-02-28T16:45:26;2.53;;;1.48;;
48516;SDS011;34310;51.904;4.256;2023-02-28T16:47:55;4.97;;;1.42;;
48516;SDS011;34310;51.904;4.256;2023-02-28T16:50:26;2.15;;;1.45;;
48516;SDS011;34310;51.904;4.256;2023-02-28T16:52:55;2.33;;;1.40;;
48516;SDS011;34310;51.904;4.256;2023-02-28T16:55:23;1.60;;;1.42;;
48516;SDS011;34310;51.904;4.256;2023-02-28T16:57:52;1.50;;;1.40;;
48516;SDS011;34310;51.904;4.256;2023-02-28T17:00:25;2.25;;;1.67;;
48516;SDS011;34310;51.904;4.256;2023-02-28T17:02:54;2.10;;;1.52;;
48516;SDS011;34310;51.904;4.256;2023-02-28T17:05:22;2.20;;;1.77;;
48516;SDS011;34310;51.904;4.256;2023-02-28T17:07:50;5.30;;;1.50;;
48516;SDS011;34310;51.904;4.256;2023-02-28T17:10:22;2.47;;;1.52;;
48516;SDS011;34310;51.904;4.256;2023-02-28T17:12:52;6.88;;;1.88;;
48516;SDS011;34310;51.904;4.256;2023-02-28T17:15:28;8.98;;;1.60;;
48516;SDS011;34310;51.904;4.256;2023-02-28T17:17:57;5.72;;;1.77;;
48516;SDS011;34310;51.904;4.256;2023-02-28T17:20:24;3.78;;;1.50;;
48516;SDS011;34310;51.904;4.256;2023-02-28T17:22:53;4.00;;;1.70;;
48516;SDS011;34310;51.904;4.256;2023-02-28T17:25:21;3.60;;;1.60;;
48516;SDS011;34310;51.904;4.256;2023-02-28T17:27:49;4.30;;;1.80;;
48516;SDS011;34310;51.904;4.256;2023-02-28T17:30:24;5.88;;;1.35;;
48516;SDS011;34310;51.904;4.256;2023-02-28T17:32:53;8.23;;;1.88;;
48516;SDS011;34310;51.904;4.256;2023-02-28T17:35:22;7.90;;;2.08;;
48516;SDS011;34310;51.904;4.256;2023-02-28T17:37:50;4.63;;;1.92;;
48516;SDS011;34310;51.904;4.256;2023-02-28T17:40:21;4.95;;;2.10;;
48516;SDS011;34310;51.904;4.256;2023-02-28T17:42:49;6.57;;;1.98;;
48516;SDS011;34310;51.904;4.256;2023-02-28T17:45:18;4.97;;;2.00;;
48516;SDS011;34310;51.904;4.256;2023-02-28T17:47:46;9.55;;;2.40;;
48516;SDS011;34310;51.904;4.256;2023-02-28T17:50:17;8.52;;;2.42;;
48516;SDS011;34310;51.904;4.256;2023-02-28T17:52:47;7.00;;;2.42;;
48516;SDS011;34310;51.904;4.256;2023-02-28T17:55:16;7.90;;;2.45;;
48516;SDS011;34310;51.904;4.256;2023-02-28T17:57:45;6.65;;;2.20;;